Aérodrome :
LOGIN :

S'inscrire | Disclaimer

   EN    FR    IT 

 










Légende :    VFR   VFR Marginal   IFR   IFR Intensif   IFR Très Intensif
Visi : 
Plafond : 
>= 8 km
>= 3000ft
5 à 8 km
1000 à 3000 ft
1500m à 5 km
500 à 1000 ft
800 à 1500m
200 à 500 ft
< 800m
< 200 ft
Symboles :   Orages  Brouillard  Fortes neiges  Fortes précipitations  Vent > 20 kt
SIGMETs :   Divers  Orages  Givrage  Turbulence  Onde Orograph.  Cendres Volcan.







- Altitude de l'aérodrome : 72 ft
- Code IATA : UDE


EHVK - Volkel Airbase

DERNIER METAR :
  • 290325Z AUTO 05005KT 9999 NCD 16/12 Q1013 BLU

METARs EXPIRÉS :
  • 290255Z AUTO 04004KT 010V080 9999 OVC150 17/12 Q1014 BLU
  • 290225Z AUTO 05005KT 9999 SCT150 17/12 Q1014 BLU
  • 290155Z AUTO 03004KT 9999 OVC110 17/13 Q1015 BLU
  • 290125Z AUTO 03005KT 9999 OVC120 17/13 Q1015 BLU
  • 290055Z AUTO 03004KT 9999 OVC120 18/13 Q1015 BLU

Prévision TAF périmée.
Pas de NOTAMs connus pour ce terrain.
1 SIGMET publié pour la FIR Amsterdam (EHAA) :
 
Orages noyés dans la masse
EHAA SIGMET 1 VALID 290218/290618 EHDB
EHAA AMSTERDAM FIR EMBD TS OBS WI N5129 E00159 - N5122 E00322 - N5235 E00253 - N5129 E00159 TOP ABV FL400 MOV NNE 20KT NC=



MET'MAP, la Météo Aéronautique d'un coup d'oeil ! - Copyright ORBIFLY Décembre 2007 - Disclaimer

ORBIFLY MET'MAP TEAM :

Programmation & Développement : Alexandra Zaïnal
Conception & Développement : Baudouin d'Aumeries
Co-Programmation & Développement : Marc-Olivier Méhu
Soutien technique & logistique : Manuel Goepfert

Contact : metmap@orbifly.com




SOURCES & CREDITS :

   NOAA